sensor_id;sensor_type;location;lat;lon;timestamp;pressure;altitude;pressure_sealevel;temperature;humidity
39897;BME280;25567;48.276;14.242;2023-02-03T00:00:54;99457.81;;;0.05;100.00
39897;BME280;25567;48.276;14.242;2023-02-03T00:03:21;99450.81;;;-0.04;100.00
39897;BME280;25567;48.276;14.242;2023-02-03T00:05:50;99446.97;;;0.00;100.00
39897;BME280;25567;48.276;14.242;2023-02-03T00:08:18;99444.50;;;-0.02;100.00
39897;BME280;25567;48.276;14.242;2023-02-03T00:10:47;99438.59;;;0.06;100.00
39897;BME280;25567;48.276;14.242;2023-02-03T00:13:16;99447.94;;;0.09;100.00
39897;BME280;25567;48.276;14.242;2023-02-03T00:15:44;99445.31;;;0.09;100.00
39897;BME280;25567;48.276;14.242;2023-02-03T00:18:12;99448.91;;;-0.02;100.00
39897;BME280;25567;48.276;14.242;2023-02-03T00:20:40;99449.41;;;-0.18;100.00
39897;BME280;25567;48.276;14.242;2023-02-03T00:23:12;99449.41;;;-0.18;100.00
39897;BME280;25567;48.276;14.242;2023-02-03T00:25:40;99445.00;;;-0.37;100.00
39897;BME280;25567;48.276;14.242;2023-02-03T00:28:09;99434.88;;;-0.30;100.00
39897;BME280;25567;48.276;14.242;2023-02-03T00:30:37;99420.72;;;-0.28;100.00
39897;BME280;25567;48.276;14.242;2023-02-03T00:33:05;99419.88;;;-0.28;100.00
39897;BME280;25567;48.276;14.242;2023-02-03T00:35:32;99424.53;;;-0.32;100.00
39897;BME280;25567;48.276;14.242;2023-02-03T00:37:59;99418.94;;;-0.37;100.00
39897;BME280;25567;48.276;14.242;2023-02-03T00:40:26;99409.16;;;-0.45;100.00
39897;BME280;25567;48.276;14.242;2023-02-03T00:42:56;99406.28;;;-0.42;100.00
39897;BME280;25567;48.276;14.242;2023-02-03T00:45:24;99413.97;;;-0.40;100.00
39897;BME280;25567;48.276;14.242;2023-02-03T00:47:52;99418.09;;;-0.38;100.00
39897;BME280;25567;48.276;14.242;2023-02-03T00:50:19;99412.06;;;-0.38;100.00
39897;BME280;25567;48.276;14.242;2023-02-03T00:52:47;99411.91;;;-0.37;100.00
39897;BME280;25567;48.276;14.242;2023-02-03T00:55:15;99408.75;;;-0.40;100.00
39897;BME280;25567;48.276;14.242;2023-02-03T00:57:43;99402.72;;;-0.41;100.00
39897;BME280;25567;48.276;14.242;2023-02-03T01:00:12;99403.41;;;-0.39;100.00
39897;BME280;25567;48.276;14.242;2023-02-03T01:02:42;99409.59;;;-0.40;100.00
39897;BME280;25567;48.276;14.242;2023-02-03T01:05:10;99405.75;;;-0.36;100.00
39897;BME280;25567;48.276;14.242;2023-02-03T01:07:38;99408.38;;;-0.36;100.00
39897;BME280;25567;48.276;14.242;2023-02-03T01:10:07;99399.69;;;-0.36;100.00
39897;BME280;25567;48.276;14.242;2023-02-03T01:12:34;99400.25;;;-0.32;100.00
39897;BME280;25567;48.276;14.242;2023-02-03T01:15:02;99393.41;;;-0.34;100.00
39897;BME280;25567;48.276;14.242;2023-02-03T01:17:30;99387.94;;;-0.30;100.00
39897;BME280;25567;48.276;14.242;2023-02-03T01:19:57;99388.75;;;-0.30;100.00
39897;BME280;25567;48.276;14.242;2023-02-03T01:22:24;99381.72;;;-0.29;100.00
39897;BME280;25567;48.276;14.242;2023-02-03T01:24:52;99377.50;;;-0.30;100.00
39897;BME280;25567;48.276;14.242;2023-02-03T01:27:20;99369.78;;;-0.32;100.00
39897;BME280;25567;48.276;14.242;2023-02-03T01:29:48;99382.81;;;-0.32;100.00
39897;BME280;25567;48.276;14.242;2023-02-03T01:32:15;99377.75;;;-0.34;100.00
39897;BME280;25567;48.276;14.242;2023-02-03T01:34:43;99376.66;;;-0.31;100.00
39897;BME280;25567;48.276;14.242;2023-02-03T01:37:12;99372.28;;;-0.30;100.00
39897;BME280;25567;48.276;14.242;2023-02-03T01:39:41;99369.69;;;-0.30;100.00
39897;BME280;25567;48.276;14.242;2023-02-03T01:42:14;99374.63;;;-0.27;100.00
39897;BME280;25567;48.276;14.242;2023-02-03T01:44:45;99385.84;;;-0.27;100.00
39897;BME280;25567;48.276;14.242;2023-02-03T01:47:23;99373.66;;;-0.26;100.00
39897;BME280;25567;48.276;14.242;2023-02-03T01:52:35;99373.53;;;-0.25;100.00
39897;BME280;25567;48.276;14.242;2023-02-03T01:55:04;99382.28;;;-0.26;100.00
39897;BME280;25567;48.276;14.242;2023-02-03T01:57:38;99367.59;;;-0.27;100.00
39897;BME280;25567;48.276;14.242;2023-02-03T02:00:09;99374.19;;;-0.23;100.00
39897;BME280;25567;48.276;14.242;2023-02-03T02:02:39;99374.19;;;-0.23;100.00
39897;BME280;25567;48.276;14.242;2023-02-03T02:05:27;99362.13;;;-0.24;100.00
39897;BME280;25567;48.276;14.242;2023-02-03T02:07:58;99365.56;;;-0.23;100.00
39897;BME280;25567;48.276;14.242;2023-02-03T02:10:28;99362.94;;;-0.23;100.00
39897;BME280;25567;48.276;14.242;2023-02-03T02:12:57;99355.13;;;-0.23;100.00
39897;BME280;25567;48.276;14.242;2023-02-03T02:15:38;99343.75;;;-0.22;100.00
39897;BME280;25567;48.276;14.242;2023-02-03T02:18:33;99343.59;;;-0.21;100.00
39897;BME280;25567;48.276;14.242;2023-02-03T02:24:45;99339.19;;;-0.20;100.00
39897;BME280;25567;48.276;14.242;2023-02-03T02:27:30;99332.88;;;-0.18;100.00
39897;BME280;25567;48.276;14.242;2023-02-03T02:33:16;99322.44;;;-0.18;100.00
39897;BME280;25567;48.276;14.242;2023-02-03T02:35:56;99313.13;;;-0.20;100.00
39897;BME280;25567;48.276;14.242;2023-02-03T02:41:23;99310.13;;;-0.15;100.00
39897;BME280;25567;48.276;14.242;2023-02-03T02:44:00;99307.38;;;-0.14;100.00
39897;BME280;25567;48.276;14.242;2023-02-03T02:46:36;99314.66;;;-0.08;100.00
39897;BME280;25567;48.276;14.242;2023-02-03T02:49:09;99309.56;;;0.01;100.00
39897;BME280;25567;48.276;14.242;2023-02-03T02:51:40;99300.06;;;-0.01;100.00
39897;BME280;25567;48.276;14.242;2023-02-03T02:54:14;99305.84;;;0.03;100.00
39897;BME280;25567;48.276;14.242;2023-02-03T02:56:47;99306.13;;;0.00;100.00
39897;BME280;25567;48.276;14.242;2023-02-03T02:59:17;99300.91;;;0.00;100.00
39897;BME280;25567;48.276;14.242;2023-02-03T03:01:44;99302.53;;;0.01;100.00
39897;BME280;25567;48.276;14.242;2023-02-03T03:04:14;99301.72;;;0.01;100.00
39897;BME280;25567;48.276;14.242;2023-02-03T03:06:48;99300.38;;;-0.04;100.00
39897;BME280;25567;48.276;14.242;2023-02-03T03:09:21;99295.16;;;-0.04;100.00
39897;BME280;25567;48.276;14.242;2023-02-03T03:11:54;99292.94;;;0.02;100.00
39897;BME280;25567;48.276;14.242;2023-02-03T03:14:22;99283.59;;;-0.01;100.00
39897;BME280;25567;48.276;14.242;2023-02-03T03:16:58;99291.44;;;-0.01;100.00
39897;BME280;25567;48.276;14.242;2023-02-03T03:19:31;99286.19;;;0.09;100.00
39897;BME280;25567;48.276;14.242;2023-02-03T03:22:03;99287.28;;;0.06;100.00
39897;BME280;25567;48.276;14.242;2023-02-03T03:24:33;99288.81;;;0.09;100.00
39897;BME280;25567;48.276;14.242;2023-02-03T03:27:19;99287.56;;;0.13;100.00
39897;BME280;25567;48.276;14.242;2023-02-03T03:30:01;99283.97;;;0.14;100.00
39897;BME280;25567;48.276;14.242;2023-02-03T03:32:31;99291.81;;;0.14;100.00
39897;BME280;25567;48.276;14.242;2023-02-03T03:35:00;99287.00;;;0.19;100.00
39897;BME280;25567;48.276;14.242;2023-02-03T03:37:47;99292.06;;;0.21;100.00
39897;BME280;25567;48.276;14.242;2023-02-03T03:40:27;99283.00;;;0.25;100.00
39897;BME280;25567;48.276;14.242;2023-02-03T03:43:00;99287.66;;;0.31;100.00
39897;BME280;25567;48.276;14.242;2023-02-03T03:45:53;99283.25;;;0.31;100.00
39897;BME280;25567;48.276;14.242;2023-02-03T03:48:30;99288.06;;;0.26;100.00
39897;BME280;25567;48.276;14.242;2023-02-03T03:51:04;99281.19;;;0.35;100.00
39897;BME280;25567;48.276;14.242;2023-02-03T03:53:35;99282.69;;;0.38;100.00
39897;BME280;25567;48.276;14.242;2023-02-03T03:56:09;99282.50;;;0.49;100.00
39897;BME280;25567;48.276;14.242;2023-02-03T03:58:42;99280.47;;;0.43;100.00
39897;BME280;25567;48.276;14.242;2023-02-03T04:01:13;99280.03;;;0.47;100.00
39897;BME280;25567;48.276;14.242;2023-02-03T04:03:47;99283.88;;;0.53;100.00
39897;BME280;25567;48.276;14.242;2023-02-03T04:06:15;99281.69;;;0.48;100.00
39897;BME280;25567;48.276;14.242;2023-02-03T04:08:44;99279.63;;;0.52;100.00
39897;BME280;25567;48.276;14.242;2023-02-03T04:11:11;99271.94;;;0.51;100.00
39897;BME280;25567;48.276;14.242;2023-02-03T04:13:58;99274.66;;;0.49;100.00
39897;BME280;25567;48.276;14.242;2023-02-03T04:16:26;99271.63;;;0.54;100.00
39897;BME280;25567;48.276;14.242;2023-02-03T04:18:54;99281.28;;;0.53;100.00
39897;BME280;25567;48.276;14.242;2023-02-03T04:21:22;99275.47;;;0.59;100.00
39897;BME280;25567;48.276;14.242;2023-02-03T04:23:53;99278.75;;;0.61;100.00
39897;BME280;25567;48.276;14.242;2023-02-03T04:26:22;99269.28;;;0.60;100.00
39897;BME280;25567;48.276;14.242;2023-02-03T04:28:51;99269.53;;;0.67;100.00
39897;BME280;25567;48.276;14.242;2023-02-03T04:31:19;99263.34;;;0.68;100.00
39897;BME280;25567;48.276;14.242;2023-02-03T04:33:47;99273.94;;;0.66;100.00
39897;BME280;25567;48.276;14.242;2023-02-03T04:36:14;99272.69;;;0.61;100.00
39897;BME280;25567;48.276;14.242;2023-02-03T04:38:42;99269.13;;;0.62;100.00
39897;BME280;25567;48.276;14.242;2023-02-03T04:41:09;99271.84;;;0.70;100.00
39897;BME280;25567;48.276;14.242;2023-02-03T04:43:37;99273.53;;;0.61;100.00
39897;BME280;25567;48.276;14.242;2023-02-03T04:46:03;99272.59;;;0.62;100.00
39897;BME280;25567;48.276;14.242;2023-02-03T04:48:30;99275.03;;;0.64;100.00
39897;BME280;25567;48.276;14.242;2023-02-03T04:51:06;99269.66;;;0.65;100.00
39897;BME280;25567;48.276;14.242;2023-02-03T04:53:34;99275.94;;;0.73;100.00
39897;BME280;25567;48.276;14.242;2023-02-03T04:56:02;99276.63;;;0.75;100.00
39897;BME280;25567;48.276;14.242;2023-02-03T04:58:30;99261.88;;;0.83;100.00
39897;BME280;25567;48.276;14.242;2023-02-03T05:00:57;99250.91;;;0.80;100.00
39897;BME280;25567;48.276;14.242;2023-02-03T05:03:24;99245.88;;;0.69;100.00
39897;BME280;25567;48.276;14.242;2023-02-03T05:05:55;99262.50;;;0.68;100.00
39897;BME280;25567;48.276;14.242;2023-02-03T05:08:23;99252.44;;;0.73;100.00
39897;BME280;25567;48.276;14.242;2023-02-03T05:10:52;99258.66;;;0.72;100.00
39897;BME280;25567;48.276;14.242;2023-02-03T05:13:21;99252.16;;;0.76;100.00
39897;BME280;25567;48.276;14.242;2023-02-03T05:15:50;99240.72;;;0.77;100.00
39897;BME280;25567;48.276;14.242;2023-02-03T05:18:18;99231.13;;;0.77;100.00
39897;BME280;25567;48.276;14.242;2023-02-03T05:20:46;99241.13;;;0.82;100.00
39897;BME280;25567;48.276;14.242;2023-02-03T05:23:13;99244.34;;;0.76;100.00
39897;BME280;25567;48.276;14.242;2023-02-03T05:25:42;99258.75;;;0.80;100.00
39897;BME280;25567;48.276;14.242;2023-02-03T05:28:09;99250.31;;;0.86;100.00
39897;BME280;25567;48.276;14.242;2023-02-03T05:30:38;99262.84;;;0.82;100.00
39897;BME280;25567;48.276;14.242;2023-02-03T05:33:06;99252.25;;;0.84;100.00
39897;BME280;25567;48.276;14.242;2023-02-03T05:35:34;99253.47;;;0.90;100.00
39897;BME280;25567;48.276;14.242;2023-02-03T05:38:03;99234.06;;;0.92;100.00
39897;BME280;25567;48.276;14.242;2023-02-03T05:40:31;99229.00;;;0.91;100.00
39897;BME280;25567;48.276;14.242;2023-02-03T05:43:13;99214.03;;;0.83;100.00
39897;BME280;25567;48.276;14.242;2023-02-03T05:45:41;99199.66;;;0.97;100.00
39897;BME280;25567;48.276;14.242;2023-02-03T05:48:10;99202.41;;;0.95;100.00
39897;BME280;25567;48.276;14.242;2023-02-03T05:50:43;99199.44;;;0.90;100.00
39897;BME280;25567;48.276;14.242;2023-02-03T05:53:10;99201.59;;;0.95;100.00
39897;BME280;25567;48.276;14.242;2023-02-03T05:55:39;99200.63;;;0.96;100.00
39897;BME280;25567;48.276;14.242;2023-02-03T05:58:08;99207.19;;;1.00;100.00
39897;BME280;25567;48.276;14.242;2023-02-03T06:00:37;99208.63;;;0.94;100.00
39897;BME280;25567;48.276;14.242;2023-02-03T06:03:04;99204.22;;;0.95;100.00
39897;BME280;25567;48.276;14.242;2023-02-03T06:05:33;99202.41;;;0.95;100.00
39897;BME280;25567;48.276;14.242;2023-02-03T06:08:01;99200.88;;;1.03;100.00
39897;BME280;25567;48.276;14.242;2023-02-03T06:10:28;99213.34;;;1.09;100.00
39897;BME280;25567;48.276;14.242;2023-02-03T06:12:56;99214.38;;;1.16;100.00
39897;BME280;25567;48.276;14.242;2023-02-03T06:15:24;99195.78;;;1.19;100.00
39897;BME280;25567;48.276;14.242;2023-02-03T06:17:52;99191.88;;;1.23;100.00
39897;BME280;25567;48.276;14.242;2023-02-03T06:20:20;99192.03;;;1.22;100.00
39897;BME280;25567;48.276;14.242;2023-02-03T06:22:47;99179.72;;;1.32;100.00
39897;BME280;25567;48.276;14.242;2023-02-03T06:25:16;99180.69;;;1.31;100.00
39897;BME280;25567;48.276;14.242;2023-02-03T06:27:44;99169.31;;;1.40;100.00
39897;BME280;25567;48.276;14.242;2023-02-03T06:30:12;99171.94;;;1.40;100.00
39897;BME280;25567;48.276;14.242;2023-02-03T06:32:40;99174.34;;;1.33;100.00
39897;BME280;25567;48.276;14.242;2023-02-03T06:35:07;99170.75;;;1.35;100.00
39897;BME280;25567;48.276;14.242;2023-02-03T06:37:36;99178.13;;;1.39;100.00
39897;BME280;25567;48.276;14.242;2023-02-03T06:40:05;99187.81;;;1.65;100.00
39897;BME280;25567;48.276;14.242;2023-02-03T06:42:32;99166.50;;;1.78;100.00
39897;BME280;25567;48.276;14.242;2023-02-03T06:45:00;99164.47;;;1.98;100.00
39897;BME280;25567;48.276;14.242;2023-02-03T06:47:28;99139.22;;;2.15;100.00
39897;BME280;25567;48.276;14.242;2023-02-03T06:49:57;99148.59;;;2.26;100.00
39897;BME280;25567;48.276;14.242;2023-02-03T06:52:25;99139.28;;;2.31;100.00
39897;BME280;25567;48.276;14.242;2023-02-03T06:54:53;99149.91;;;2.30;100.00
39897;BME280;25567;48.276;14.242;2023-02-03T06:57:20;99154.03;;;2.41;100.00
39897;BME280;25567;48.276;14.242;2023-02-03T06:59:47;99149.31;;;2.44;100.00
39897;BME280;25567;48.276;14.242;2023-02-03T07:02:15;99145.56;;;2.47;100.00
39897;BME280;25567;48.276;14.242;2023-02-03T07:04:44;99150.81;;;2.55;100.00
39897;BME280;25567;48.276;14.242;2023-02-03T07:07:12;99156.38;;;2.60;100.00
39897;BME280;25567;48.276;14.242;2023-02-03T07:09:40;99143.13;;;2.62;100.00
39897;BME280;25567;48.276;14.242;2023-02-03T07:12:08;99140.69;;;2.69;100.00
39897;BME280;25567;48.276;14.242;2023-02-03T07:14:37;99155.91;;;2.73;100.00
39897;BME280;25567;48.276;14.242;2023-02-03T07:17:05;99157.72;;;2.81;100.00
39897;BME280;25567;48.276;14.242;2023-02-03T07:19:34;99152.53;;;2.89;100.00
39897;BME280;25567;48.276;14.242;2023-02-03T07:22:01;99160.03;;;2.84;100.00
39897;BME280;25567;48.276;14.242;2023-02-03T07:24:29;99168.25;;;2.89;100.00
39897;BME280;25567;48.276;14.242;2023-02-03T07:26:56;99162.69;;;2.92;100.00
39897;BME280;25567;48.276;14.242;2023-02-03T07:29:24;99155.78;;;2.99;100.00
39897;BME280;25567;48.276;14.242;2023-02-03T07:31:52;99149.09;;;3.05;100.00
39897;BME280;25567;48.276;14.242;2023-02-03T07:34:20;99146.31;;;3.07;100.00
39897;BME280;25567;48.276;14.242;2023-02-03T07:36:47;99150.41;;;3.09;100.00
39897;BME280;25567;48.276;14.242;2023-02-03T07:39:17;99141.41;;;3.12;100.00
39897;BME280;25567;48.276;14.242;2023-02-03T07:41:45;99144.03;;;3.12;100.00
39897;BME280;25567;48.276;14.242;2023-02-03T07:44:13;99147.63;;;3.19;100.00
39897;BME280;25567;48.276;14.242;2023-02-03T07:46:42;99142.22;;;3.21;100.00
39897;BME280;25567;48.276;14.242;2023-02-03T07:49:13;99147.28;;;3.22;100.00
39897;BME280;25567;48.276;14.242;2023-02-03T07:51:41;99142.53;;;3.26;100.00
39897;BME280;25567;48.276;14.242;2023-02-03T07:54:09;99146.81;;;3.27;100.00
39897;BME280;25567;48.276;14.242;2023-02-03T07:56:37;99148.44;;;3.28;100.00
39897;BME280;25567;48.276;14.242;2023-02-03T07:59:05;99146.81;;;3.27;100.00
39897;BME280;25567;48.276;14.242;2023-02-03T08:01:32;99146.63;;;3.37;100.00
39897;BME280;25567;48.276;14.242;2023-02-03T08:04:01;99145.00;;;3.44;100.00
39897;BME280;25567;48.276;14.242;2023-02-03T08:06:31;99144.16;;;3.43;100.00
39897;BME280;25567;48.276;14.242;2023-02-03T08:08:58;99150.56;;;3.49;100.00
39897;BME280;25567;48.276;14.242;2023-02-03T08:11:25;99149.56;;;3.50;100.00
39897;BME280;25567;48.276;14.242;2023-02-03T08:13:54;99158.91;;;3.53;100.00
39897;BME280;25567;48.276;14.242;2023-02-03T08:16:22;99162.84;;;3.57;100.00
39897;BME280;25567;48.276;14.242;2023-02-03T08:18:51;99166.13;;;3.59;100.00
39897;BME280;25567;48.276;14.242;2023-02-03T08:21:19;99163.03;;;3.63;100.00
39897;BME280;25567;48.276;14.242;2023-02-03T08:23:47;99153.00;;;3.67;100.00
39897;BME280;25567;48.276;14.242;2023-02-03T08:26:19;99165.94;;;3.68;100.00
39897;BME280;25567;48.276;14.242;2023-02-03T08:28:48;99169.88;;;3.64;100.00
39897;BME280;25567;48.276;14.242;2023-02-03T08:31:17;99170.72;;;3.65;100.00
39897;BME280;25567;48.276;14.242;2023-02-03T08:33:45;99169.22;;;3.71;100.00
39897;BME280;25567;48.276;14.242;2023-02-03T08:36:13;99179.06;;;3.77;100.00
39897;BME280;25567;48.276;14.242;2023-02-03T08:38:41;99163.97;;;3.79;100.00
39897;BME280;25567;48.276;14.242;2023-02-03T08:41:11;99162.00;;;3.81;100.00
39897;BME280;25567;48.276;14.242;2023-02-03T08:43:39;99157.91;;;3.78;100.00
39897;BME280;25567;48.276;14.242;2023-02-03T08:46:11;99144.97;;;3.77;100.00
39897;BME280;25567;48.276;14.242;2023-02-03T08:48:38;99148.22;;;3.79;100.00
39897;BME280;25567;48.276;14.242;2023-02-03T08:51:10;99139.53;;;3.78;100.00
39897;BME280;25567;48.276;14.242;2023-02-03T08:53:37;99145.94;;;3.76;100.00
39897;BME280;25567;48.276;14.242;2023-02-03T08:56:06;99138.56;;;3.79;100.00
39897;BME280;25567;48.276;14.242;2023-02-03T08:58:34;99149.03;;;3.71;100.00
39897;BME280;25567;48.276;14.242;2023-02-03T09:01:08;99145.59;;;3.79;100.00
39897;BME280;25567;48.276;14.242;2023-02-03T09:03:38;99156.44;;;3.76;100.00
39897;BME280;25567;48.276;14.242;2023-02-03T09:06:06;99169.72;;;3.82;100.00
39897;BME280;25567;48.276;14.242;2023-02-03T09:08:34;99155.59;;;3.83;100.00
39897;BME280;25567;48.276;14.242;2023-02-03T09:11:09;99162.63;;;3.83;100.00
39897;BME280;25567;48.276;14.242;2023-02-03T09:13:37;99159.03;;;3.84;100.00
39897;BME280;25567;48.276;14.242;2023-02-03T09:16:07;99141.66;;;3.91;99.03
39897;BME280;25567;48.276;14.242;2023-02-03T09:18:35;99151.97;;;3.93;98.52
39897;BME280;25567;48.276;14.242;2023-02-03T09:21:07;99149.66;;;3.98;97.64
39897;BME280;25567;48.276;14.242;2023-02-03T09:23:37;99141.09;;;4.04;96.70
39897;BME280;25567;48.276;14.242;2023-02-03T09:26:07;99148.00;;;4.05;95.97
39897;BME280;25567;48.276;14.242;2023-02-03T09:28:36;99152.72;;;4.10;95.94
39897;BME280;25567;48.276;14.242;2023-02-03T09:31:08;99149.44;;;4.16;95.80
39897;BME280;25567;48.276;14.242;2023-02-03T09:33:38;99145.00;;;4.16;95.06
39897;BME280;25567;48.276;14.242;2023-02-03T09:36:07;99152.00;;;4.24;94.13
39897;BME280;25567;48.276;14.242;2023-02-03T09:38:35;99151.53;;;4.29;94.01
39897;BME280;25567;48.276;14.242;2023-02-03T09:46:38;99139.31;;;4.44;91.96
39897;BME280;25567;48.276;14.242;2023-02-03T09:49:17;99132.06;;;4.46;91.99
39897;BME280;25567;48.276;14.242;2023-02-03T09:51:53;99129.25;;;4.48;91.72
39897;BME280;25567;48.276;14.242;2023-02-03T09:54:36;99127.28;;;4.50;91.75
39897;BME280;25567;48.276;14.242;2023-02-03T09:57:15;99119.72;;;4.55;91.62
39897;BME280;25567;48.276;14.242;2023-02-03T09:59:45;99113.28;;;4.58;90.78
39897;BME280;25567;48.276;14.242;2023-02-03T10:05:21;99121.50;;;4.55;90.70
39897;BME280;25567;48.276;14.242;2023-02-03T10:08:14;99113.13;;;4.59;90.45
39897;BME280;25567;48.276;14.242;2023-02-03T10:11:02;99121.00;;;4.59;90.29
39897;BME280;25567;48.276;14.242;2023-02-03T10:19:23;99101.88;;;4.65;90.23
39897;BME280;25567;48.276;14.242;2023-02-03T10:21:56;99091.53;;;4.72;89.04
39897;BME280;25567;48.276;14.242;2023-02-03T10:24:39;99088.34;;;4.77;88.53
39897;BME280;25567;48.276;14.242;2023-02-03T10:27:16;99094.28;;;4.79;88.59
39897;BME280;25567;48.276;14.242;2023-02-03T10:29:57;99083.75;;;4.79;88.10
39897;BME280;25567;48.276;14.242;2023-02-03T10:32:27;99089.16;;;4.77;88.41
39897;BME280;25567;48.276;14.242;2023-02-03T10:34:55;99079.50;;;4.78;87.57
39897;BME280;25567;48.276;14.242;2023-02-03T10:37:24;99069.28;;;4.83;87.01
39897;BME280;25567;48.276;14.242;2023-02-03T10:39:56;99070.56;;;4.87;86.81
39897;BME280;25567;48.276;14.242;2023-02-03T10:42:26;99072.53;;;4.85;86.59
39897;BME280;25567;48.276;14.242;2023-02-03T10:45:15;99059.19;;;4.87;86.77
39897;BME280;25567;48.276;14.242;2023-02-03T10:47:49;99063.06;;;4.99;86.38
39897;BME280;25567;48.276;14.242;2023-02-03T10:50:23;99058.25;;;5.03;85.70
39897;BME280;25567;48.276;14.242;2023-02-03T10:56:02;99048.75;;;5.01;85.32
39897;BME280;25567;48.276;14.242;2023-02-03T10:58:32;99061.34;;;5.06;84.55
39897;BME280;25567;48.276;14.242;2023-02-03T11:01:12;99040.69;;;5.03;85.02
39897;BME280;25567;48.276;14.242;2023-02-03T11:03:53;99032.78;;;5.03;85.14
39897;BME280;25567;48.276;14.242;2023-02-03T11:06:20;99048.56;;;5.03;84.54
39897;BME280;25567;48.276;14.242;2023-02-03T11:08:49;99035.16;;;5.13;84.65
39897;BME280;25567;48.276;14.242;2023-02-03T11:11:33;99021.19;;;5.12;84.32
39897;BME280;25567;48.276;14.242;2023-02-03T11:16:32;99023.19;;;5.10;85.74
39897;BME280;25567;48.276;14.242;2023-02-03T11:19:02;99020.38;;;5.12;85.87
39897;BME280;25567;48.276;14.242;2023-02-03T11:21:41;99026.66;;;5.11;85.65
39897;BME280;25567;48.276;14.242;2023-02-03T11:29:30;99001.34;;;5.10;86.50
39897;BME280;25567;48.276;14.242;2023-02-03T11:32:00;98997.34;;;5.14;86.22
39897;BME280;25567;48.276;14.242;2023-02-03T11:34:36;99003.97;;;5.10;87.07
39897;BME280;25567;48.276;14.242;2023-02-03T11:37:24;98994.63;;;5.07;87.03
39897;BME280;25567;48.276;14.242;2023-02-03T11:39:56;98995.44;;;5.08;87.52
39897;BME280;25567;48.276;14.242;2023-02-03T11:42:42;98995.63;;;5.06;88.25
39897;BME280;25567;48.276;14.242;2023-02-03T11:48:15;98990.34;;;5.06;87.51
39897;BME280;25567;48.276;14.242;2023-02-03T11:51:11;98984.63;;;5.03;88.60
39897;BME280;25567;48.276;14.242;2023-02-03T12:08:12;98953.91;;;4.88;91.80
39897;BME280;25567;48.276;14.242;2023-02-03T12:16:26;98921.63;;;4.79;91.95
39897;BME280;25567;48.276;14.242;2023-02-03T12:22:07;98911.47;;;4.76;92.07
39897;BME280;25567;48.276;14.242;2023-02-03T12:24:43;98901.38;;;4.80;91.53
39897;BME280;25567;48.276;14.242;2023-02-03T12:27:45;98891.63;;;4.74;91.45
39897;BME280;25567;48.276;14.242;2023-02-03T12:30:24;98895.53;;;4.78;90.84
39897;BME280;25567;48.276;14.242;2023-02-03T12:32:57;98897.69;;;4.74;90.78
39897;BME280;25567;48.276;14.242;2023-02-03T12:35:46;98888.25;;;4.80;90.15
39897;BME280;25567;48.276;14.242;2023-02-03T12:38:33;98886.00;;;4.77;90.29
39897;BME280;25567;48.276;14.242;2023-02-03T12:41:09;98890.88;;;4.80;89.78
39897;BME280;25567;48.276;14.242;2023-02-03T12:46:22;98873.75;;;4.84;89.45
39897;BME280;25567;48.276;14.242;2023-02-03T12:49:09;98855.00;;;4.87;89.29
39897;BME280;25567;48.276;14.242;2023-02-03T12:51:58;98847.13;;;4.87;88.59
39897;BME280;25567;48.276;14.242;2023-02-03T12:54:43;98842.84;;;4.86;88.19
39897;BME280;25567;48.276;14.242;2023-02-03T12:57:37;98837.88;;;4.91;87.66
39897;BME280;25567;48.276;14.242;2023-02-03T13:00:09;98823.19;;;4.97;87.15
39897;BME280;25567;48.276;14.242;2023-02-03T13:13:47;98789.34;;;5.09;85.51
39897;BME280;25567;48.276;14.242;2023-02-03T13:16:23;98786.53;;;5.10;85.38
39897;BME280;25567;48.276;14.242;2023-02-03T13:18:57;98773.84;;;5.14;84.84
39897;BME280;25567;48.276;14.242;2023-02-03T13:21:28;98758.31;;;5.19;84.76
39897;BME280;25567;48.276;14.242;2023-02-03T13:23:57;98755.44;;;5.14;84.98
39897;BME280;25567;48.276;14.242;2023-02-03T13:29:31;98745.91;;;5.13;84.92
39897;BME280;25567;48.276;14.242;2023-02-03T13:40:54;98714.22;;;5.21;84.25
39897;BME280;25567;48.276;14.242;2023-02-03T13:43:28;98726.19;;;5.24;84.25
39897;BME280;25567;48.276;14.242;2023-02-03T13:46:07;98718.53;;;5.29;83.94
39897;BME280;25567;48.276;14.242;2023-02-03T13:48:45;98696.25;;;5.25;84.17
39897;BME280;25567;48.276;14.242;2023-02-03T13:51:16;98692.44;;;5.27;84.67
39897;BME280;25567;48.276;14.242;2023-02-03T13:53:46;98685.53;;;5.26;84.83
39897;BME280;25567;48.276;14.242;2023-02-03T13:56:17;98689.56;;;5.22;85.23
39897;BME280;25567;48.276;14.242;2023-02-03T14:01:29;98680.13;;;5.28;84.91
39897;BME280;25567;48.276;14.242;2023-02-03T14:03:59;98671.84;;;5.31;84.84
39897;BME280;25567;48.276;14.242;2023-02-03T14:12:18;98658.38;;;5.19;85.41
39897;BME280;25567;48.276;14.242;2023-02-03T14:15:00;98659.00;;;5.21;85.98
39897;BME280;25567;48.276;14.242;2023-02-03T14:20:40;98653.13;;;5.19;86.59
39897;BME280;25567;48.276;14.242;2023-02-03T14:23:15;98644.00;;;5.15;87.22
39897;BME280;25567;48.276;14.242;2023-02-03T14:25:47;98641.72;;;5.12;87.45
39897;BME280;25567;48.276;14.242;2023-02-03T14:28:20;98639.72;;;5.14;88.12
39897;BME280;25567;48.276;14.242;2023-02-03T14:31:18;98626.31;;;5.09;88.54
39897;BME280;25567;48.276;14.242;2023-02-03T14:36:39;98627.97;;;5.10;87.87
39897;BME280;25567;48.276;14.242;2023-02-03T14:39:28;98638.88;;;5.07;88.44
39897;BME280;25567;48.276;14.242;2023-02-03T14:42:07;98629.16;;;5.07;88.40
39897;BME280;25567;48.276;14.242;2023-02-03T14:47:24;98639.88;;;5.06;87.83
39897;BME280;25567;48.276;14.242;2023-02-03T14:50:34;98639.47;;;5.09;88.14
39897;BME280;25567;48.276;14.242;2023-02-03T14:57:47;98662.16;;;5.10;87.61
39897;BME280;25567;48.276;14.242;2023-02-03T15:05:50;98687.84;;;5.14;87.66
39897;BME280;25567;48.276;14.242;2023-02-03T15:08:35;98694.75;;;5.15;87.38
39897;BME280;25567;48.276;14.242;2023-02-03T15:14:21;98694.94;;;5.14;87.77